sensor_id;sensor_type;location;lat;lon;timestamp;P1;durP1;ratioP1;P2;durP2;ratioP2
789;SDS011;378;48.844;9.156;2023-07-20T00:02:23;3.92;;;1.90;;
789;SDS011;378;48.844;9.156;2023-07-20T00:04:50;3.50;;;1.88;;
789;SDS011;378;48.844;9.156;2023-07-20T00:07:17;2.80;;;1.83;;
789;SDS011;378;48.844;9.156;2023-07-20T00:09:45;7.38;;;2.00;;
789;SDS011;378;48.844;9.156;2023-07-20T00:12:13;3.10;;;1.75;;
789;SDS011;378;48.844;9.156;2023-07-20T00:14:40;3.90;;;1.75;;
789;SDS011;378;48.844;9.156;2023-07-20T00:17:07;5.93;;;1.83;;
789;SDS011;378;48.844;9.156;2023-07-20T00:19:33;3.45;;;1.90;;
789;SDS011;378;48.844;9.156;2023-07-20T00:22:00;7.40;;;1.60;;
789;SDS011;378;48.844;9.156;2023-07-20T00:24:29;5.43;;;1.83;;
789;SDS011;378;48.844;9.156;2023-07-20T00:26:58;5.15;;;1.70;;
789;SDS011;378;48.844;9.156;2023-07-20T00:29:25;6.10;;;1.90;;
789;SDS011;378;48.844;9.156;2023-07-20T00:31:52;4.53;;;2.08;;
789;SDS011;378;48.844;9.156;2023-07-20T00:34:19;2.92;;;1.90;;
789;SDS011;378;48.844;9.156;2023-07-20T00:36:46;3.75;;;1.63;;
789;SDS011;378;48.844;9.156;2023-07-20T00:39:14;3.88;;;1.52;;
789;SDS011;378;48.844;9.156;2023-07-20T00:41:40;3.72;;;1.63;;
789;SDS011;378;48.844;9.156;2023-07-20T00:44:09;5.55;;;1.70;;
789;SDS011;378;48.844;9.156;2023-07-20T00:46:35;4.15;;;1.60;;
789;SDS011;378;48.844;9.156;2023-07-20T00:49:02;3.70;;;1.58;;
789;SDS011;378;48.844;9.156;2023-07-20T00:51:29;3.40;;;1.70;;
789;SDS011;378;48.844;9.156;2023-07-20T00:53:56;5.57;;;1.60;;
789;SDS011;378;48.844;9.156;2023-07-20T00:56:23;2.67;;;1.30;;
789;SDS011;378;48.844;9.156;2023-07-20T00:58:50;3.90;;;1.58;;
789;SDS011;378;48.844;9.156;2023-07-20T01:01:19;7.60;;;1.70;;
789;SDS011;378;48.844;9.156;2023-07-20T01:03:46;2.05;;;1.20;;
789;SDS011;378;48.844;9.156;2023-07-20T01:06:15;6.32;;;1.45;;
789;SDS011;378;48.844;9.156;2023-07-20T01:09:04;2.90;;;1.52;;
789;SDS011;378;48.844;9.156;2023-07-20T01:11:42;6.38;;;1.80;;
789;SDS011;378;48.844;9.156;2023-07-20T01:14:15;2.97;;;1.50;;
789;SDS011;378;48.844;9.156;2023-07-20T01:16:44;2.28;;;1.25;;
789;SDS011;378;48.844;9.156;2023-07-20T01:19:12;4.72;;;1.42;;
789;SDS011;378;48.844;9.156;2023-07-20T01:21:40;4.35;;;1.50;;
789;SDS011;378;48.844;9.156;2023-07-20T01:33:16;4.40;;;1.70;;
789;SDS011;378;48.844;9.156;2023-07-20T01:35:47;4.47;;;1.73;;
789;SDS011;378;48.844;9.156;2023-07-20T01:38:17;2.40;;;1.45;;
789;SDS011;378;48.844;9.156;2023-07-20T01:40:45;3.72;;;1.55;;
789;SDS011;378;48.844;9.156;2023-07-20T01:43:13;4.40;;;1.60;;
789;SDS011;378;48.844;9.156;2023-07-20T01:45:40;5.78;;;1.60;;
789;SDS011;378;48.844;9.156;2023-07-20T01:48:07;5.13;;;1.70;;
789;SDS011;378;48.844;9.156;2023-07-20T01:50:35;3.92;;;1.80;;
789;SDS011;378;48.844;9.156;2023-07-20T01:53:02;3.40;;;1.65;;
789;SDS011;378;48.844;9.156;2023-07-20T01:55:29;5.25;;;1.60;;
789;SDS011;378;48.844;9.156;2023-07-20T01:57:55;11.00;;;1.70;;
789;SDS011;378;48.844;9.156;2023-07-20T02:00:24;6.68;;;1.63;;
789;SDS011;378;48.844;9.156;2023-07-20T02:02:51;5.22;;;1.70;;
789;SDS011;378;48.844;9.156;2023-07-20T02:05:18;2.72;;;1.83;;
789;SDS011;378;48.844;9.156;2023-07-20T02:07:46;4.70;;;1.70;;
789;SDS011;378;48.844;9.156;2023-07-20T02:10:13;4.32;;;1.70;;
789;SDS011;378;48.844;9.156;2023-07-20T02:12:40;4.32;;;2.05;;
789;SDS011;378;48.844;9.156;2023-07-20T02:15:07;6.15;;;1.80;;
789;SDS011;378;48.844;9.156;2023-07-20T02:17:34;5.38;;;1.80;;
789;SDS011;378;48.844;9.156;2023-07-20T02:20:02;6.53;;;1.88;;
789;SDS011;378;48.844;9.156;2023-07-20T02:22:29;4.80;;;1.60;;
789;SDS011;378;48.844;9.156;2023-07-20T02:24:57;4.80;;;1.85;;
789;SDS011;378;48.844;9.156;2023-07-20T02:27:24;4.38;;;1.80;;
789;SDS011;378;48.844;9.156;2023-07-20T02:29:51;6.63;;;1.83;;
789;SDS011;378;48.844;9.156;2023-07-20T02:32:18;3.88;;;1.95;;
789;SDS011;378;48.844;9.156;2023-07-20T02:34:45;11.93;;;1.92;;
789;SDS011;378;48.844;9.156;2023-07-20T02:37:11;4.10;;;1.88;;
789;SDS011;378;48.844;9.156;2023-07-20T02:39:39;4.70;;;1.90;;
789;SDS011;378;48.844;9.156;2023-07-20T02:42:07;4.43;;;2.58;;
789;SDS011;378;48.844;9.156;2023-07-20T02:44:34;5.00;;;1.80;;
789;SDS011;378;48.844;9.156;2023-07-20T02:47:00;5.80;;;1.85;;
789;SDS011;378;48.844;9.156;2023-07-20T02:49:27;10.18;;;2.17;;
789;SDS011;378;48.844;9.156;2023-07-20T02:51:54;2.42;;;1.70;;
789;SDS011;378;48.844;9.156;2023-07-20T02:54:21;3.72;;;1.80;;
789;SDS011;378;48.844;9.156;2023-07-20T02:56:48;4.13;;;1.80;;
789;SDS011;378;48.844;9.156;2023-07-20T02:59:16;6.85;;;1.83;;
789;SDS011;378;48.844;9.156;2023-07-20T03:01:43;5.35;;;1.90;;
789;SDS011;378;48.844;9.156;2023-07-20T03:04:10;4.32;;;1.70;;
789;SDS011;378;48.844;9.156;2023-07-20T03:06:37;3.58;;;1.75;;
789;SDS011;378;48.844;9.156;2023-07-20T03:09:04;7.15;;;1.83;;
789;SDS011;378;48.844;9.156;2023-07-20T03:11:32;3.90;;;1.70;;
789;SDS011;378;48.844;9.156;2023-07-20T03:13:59;4.07;;;1.77;;
789;SDS011;378;48.844;9.156;2023-07-20T03:16:27;2.95;;;1.75;;
789;SDS011;378;48.844;9.156;2023-07-20T03:18:57;10.25;;;1.80;;
789;SDS011;378;48.844;9.156;2023-07-20T03:21:24;4.50;;;1.95;;
789;SDS011;378;48.844;9.156;2023-07-20T03:23:51;3.50;;;2.08;;
789;SDS011;378;48.844;9.156;2023-07-20T03:26:18;2.97;;;1.67;;
789;SDS011;378;48.844;9.156;2023-07-20T03:28:45;4.95;;;1.75;;
789;SDS011;378;48.844;9.156;2023-07-20T03:31:13;5.78;;;1.80;;
789;SDS011;378;48.844;9.156;2023-07-20T03:33:42;2.97;;;1.90;;
789;SDS011;378;48.844;9.156;2023-07-20T03:36:09;2.67;;;1.77;;
789;SDS011;378;48.844;9.156;2023-07-20T03:38:36;2.38;;;1.65;;
789;SDS011;378;48.844;9.156;2023-07-20T03:41:03;4.55;;;2.10;;
789;SDS011;378;48.844;9.156;2023-07-20T03:43:29;4.60;;;1.70;;
789;SDS011;378;48.844;9.156;2023-07-20T03:45:56;4.35;;;1.80;;
789;SDS011;378;48.844;9.156;2023-07-20T03:48:23;4.68;;;1.60;;
789;SDS011;378;48.844;9.156;2023-07-20T03:50:52;4.82;;;1.95;;
789;SDS011;378;48.844;9.156;2023-07-20T03:53:20;7.10;;;2.05;;
789;SDS011;378;48.844;9.156;2023-07-20T03:55:47;3.90;;;1.90;;
789;SDS011;378;48.844;9.156;2023-07-20T03:58:14;3.67;;;1.90;;
789;SDS011;378;48.844;9.156;2023-07-20T04:00:43;3.38;;;1.80;;
789;SDS011;378;48.844;9.156;2023-07-20T04:03:10;3.80;;;1.65;;
789;SDS011;378;48.844;9.156;2023-07-20T04:05:37;6.70;;;1.80;;
789;SDS011;378;48.844;9.156;2023-07-20T04:08:06;4.45;;;1.90;;
789;SDS011;378;48.844;9.156;2023-07-20T04:10:33;3.53;;;2.13;;
789;SDS011;378;48.844;9.156;2023-07-20T04:13:00;5.22;;;2.08;;
789;SDS011;378;48.844;9.156;2023-07-20T04:15:27;6.40;;;1.90;;
789;SDS011;378;48.844;9.156;2023-07-20T04:17:54;5.30;;;1.90;;
789;SDS011;378;48.844;9.156;2023-07-20T04:20:21;5.07;;;1.55;;
789;SDS011;378;48.844;9.156;2023-07-20T04:22:48;3.78;;;1.70;;
789;SDS011;378;48.844;9.156;2023-07-20T04:25:17;4.45;;;1.70;;
789;SDS011;378;48.844;9.156;2023-07-20T04:27:44;4.03;;;2.05;;
789;SDS011;378;48.844;9.156;2023-07-20T04:30:11;4.38;;;1.80;;
789;SDS011;378;48.844;9.156;2023-07-20T04:32:40;3.40;;;1.90;;
789;SDS011;378;48.844;9.156;2023-07-20T04:35:09;5.43;;;1.85;;
789;SDS011;378;48.844;9.156;2023-07-20T04:37:36;4.50;;;2.00;;
789;SDS011;378;48.844;9.156;2023-07-20T04:40:03;5.22;;;1.65;;
789;SDS011;378;48.844;9.156;2023-07-20T04:42:32;3.20;;;1.70;;
789;SDS011;378;48.844;9.156;2023-07-20T04:44:59;8.65;;;2.05;;
789;SDS011;378;48.844;9.156;2023-07-20T04:47:26;7.53;;;2.00;;
789;SDS011;378;48.844;9.156;2023-07-20T04:49:52;5.18;;;1.77;;
789;SDS011;378;48.844;9.156;2023-07-20T04:52:19;4.97;;;2.05;;
789;SDS011;378;48.844;9.156;2023-07-20T04:54:46;9.90;;;1.83;;
789;SDS011;378;48.844;9.156;2023-07-20T04:57:13;5.50;;;1.75;;
789;SDS011;378;48.844;9.156;2023-07-20T04:59:41;7.25;;;1.83;;
789;SDS011;378;48.844;9.156;2023-07-20T05:02:08;6.53;;;1.92;;
789;SDS011;378;48.844;9.156;2023-07-20T05:04:35;5.35;;;1.83;;
789;SDS011;378;48.844;9.156;2023-07-20T05:07:02;4.75;;;1.80;;
789;SDS011;378;48.844;9.156;2023-07-20T05:09:28;6.93;;;1.80;;
789;SDS011;378;48.844;9.156;2023-07-20T05:11:55;4.95;;;1.92;;
789;SDS011;378;48.844;9.156;2023-07-20T05:14:22;4.75;;;1.75;;
789;SDS011;378;48.844;9.156;2023-07-20T05:16:51;4.10;;;1.92;;
789;SDS011;378;48.844;9.156;2023-07-20T05:19:17;2.55;;;1.70;;
789;SDS011;378;48.844;9.156;2023-07-20T05:21:44;3.05;;;1.70;;
789;SDS011;378;48.844;9.156;2023-07-20T05:24:11;5.63;;;1.88;;
789;SDS011;378;48.844;9.156;2023-07-20T05:26:38;4.50;;;1.70;;
789;SDS011;378;48.844;9.156;2023-07-20T05:29:05;4.35;;;1.65;;
789;SDS011;378;48.844;9.156;2023-07-20T05:31:31;4.80;;;1.70;;
789;SDS011;378;48.844;9.156;2023-07-20T05:33:59;3.25;;;1.65;;
789;SDS011;378;48.844;9.156;2023-07-20T05:36:26;6.30;;;1.77;;
789;SDS011;378;48.844;9.156;2023-07-20T05:38:53;2.83;;;1.40;;
789;SDS011;378;48.844;9.156;2023-07-20T05:41:20;3.47;;;1.60;;
789;SDS011;378;48.844;9.156;2023-07-20T05:43:47;5.20;;;1.30;;
789;SDS011;378;48.844;9.156;2023-07-20T05:46:14;7.53;;;1.75;;
789;SDS011;378;48.844;9.156;2023-07-20T05:48:41;4.45;;;1.80;;
789;SDS011;378;48.844;9.156;2023-07-20T05:51:09;4.57;;;1.75;;
789;SDS011;378;48.844;9.156;2023-07-20T05:53:36;8.07;;;1.80;;
789;SDS011;378;48.844;9.156;2023-07-20T05:56:03;3.22;;;1.38;;
789;SDS011;378;48.844;9.156;2023-07-20T05:58:31;5.78;;;1.50;;
789;SDS011;378;48.844;9.156;2023-07-20T06:00:57;4.95;;;1.60;;
789;SDS011;378;48.844;9.156;2023-07-20T06:03:25;3.10;;;1.48;;
789;SDS011;378;48.844;9.156;2023-07-20T06:05:51;2.95;;;1.75;;
789;SDS011;378;48.844;9.156;2023-07-20T06:08:25;4.38;;;1.60;;
789;SDS011;378;48.844;9.156;2023-07-20T06:10:52;5.45;;;1.67;;
789;SDS011;378;48.844;9.156;2023-07-20T06:13:18;4.72;;;1.70;;
789;SDS011;378;48.844;9.156;2023-07-20T06:15:45;5.43;;;1.63;;
789;SDS011;378;48.844;9.156;2023-07-20T06:18:12;3.38;;;1.40;;
789;SDS011;378;48.844;9.156;2023-07-20T06:20:39;6.55;;;1.73;;
789;SDS011;378;48.844;9.156;2023-07-20T06:23:06;4.68;;;1.35;;
789;SDS011;378;48.844;9.156;2023-07-20T06:25:34;7.22;;;1.63;;
789;SDS011;378;48.844;9.156;2023-07-20T06:28:01;3.53;;;1.30;;
789;SDS011;378;48.844;9.156;2023-07-20T06:30:29;4.85;;;1.55;;
789;SDS011;378;48.844;9.156;2023-07-20T06:32:56;4.65;;;1.27;;
789;SDS011;378;48.844;9.156;2023-07-20T06:35:22;7.97;;;1.70;;
789;SDS011;378;48.844;9.156;2023-07-20T06:37:49;7.78;;;1.85;;
789;SDS011;378;48.844;9.156;2023-07-20T06:40:16;6.82;;;1.33;;
789;SDS011;378;48.844;9.156;2023-07-20T06:42:45;8.50;;;1.52;;
789;SDS011;378;48.844;9.156;2023-07-20T06:45:11;4.72;;;1.50;;
789;SDS011;378;48.844;9.156;2023-07-20T06:47:38;5.15;;;1.58;;
789;SDS011;378;48.844;9.156;2023-07-20T06:50:06;8.00;;;1.52;;
789;SDS011;378;48.844;9.156;2023-07-20T06:52:33;5.90;;;1.70;;
789;SDS011;378;48.844;9.156;2023-07-20T06:55:00;3.08;;;1.35;;
789;SDS011;378;48.844;9.156;2023-07-20T06:57:27;8.00;;;1.50;;
789;SDS011;378;48.844;9.156;2023-07-20T06:59:55;4.95;;;1.30;;
789;SDS011;378;48.844;9.156;2023-07-20T07:02:22;6.40;;;1.55;;
789;SDS011;378;48.844;9.156;2023-07-20T07:04:49;3.60;;;1.60;;
789;SDS011;378;48.844;9.156;2023-07-20T07:07:16;5.95;;;1.17;;
789;SDS011;378;48.844;9.156;2023-07-20T07:09:43;5.70;;;1.33;;
789;SDS011;378;48.844;9.156;2023-07-20T07:12:09;3.75;;;1.70;;
789;SDS011;378;48.844;9.156;2023-07-20T07:14:36;3.17;;;1.27;;
789;SDS011;378;48.844;9.156;2023-07-20T07:17:05;9.43;;;1.88;;
789;SDS011;378;48.844;9.156;2023-07-20T07:19:32;7.63;;;1.58;;
789;SDS011;378;48.844;9.156;2023-07-20T07:21:59;4.72;;;1.38;;
789;SDS011;378;48.844;9.156;2023-07-20T07:24:25;2.58;;;1.50;;
789;SDS011;378;48.844;9.156;2023-07-20T07:26:52;4.68;;;1.70;;
789;SDS011;378;48.844;9.156;2023-07-20T07:29:19;4.35;;;1.50;;
789;SDS011;378;48.844;9.156;2023-07-20T07:31:46;5.13;;;1.45;;
789;SDS011;378;48.844;9.156;2023-07-20T07:34:14;3.83;;;1.60;;
789;SDS011;378;48.844;9.156;2023-07-20T07:36:41;4.60;;;1.55;;
789;SDS011;378;48.844;9.156;2023-07-20T07:39:08;6.60;;;1.77;;
789;SDS011;378;48.844;9.156;2023-07-20T07:41:35;5.18;;;1.40;;
789;SDS011;378;48.844;9.156;2023-07-20T07:44:02;4.63;;;1.50;;
789;SDS011;378;48.844;9.156;2023-07-20T07:46:29;4.60;;;1.60;;
789;SDS011;378;48.844;9.156;2023-07-20T07:48:56;5.43;;;1.60;;
789;SDS011;378;48.844;9.156;2023-07-20T07:51:24;7.25;;;1.55;;
789;SDS011;378;48.844;9.156;2023-07-20T07:53:52;6.57;;;1.33;;
789;SDS011;378;48.844;9.156;2023-07-20T07:56:19;3.88;;;1.45;;
789;SDS011;378;48.844;9.156;2023-07-20T07:58:47;5.72;;;1.42;;
789;SDS011;378;48.844;9.156;2023-07-20T08:01:14;2.72;;;1.52;;
789;SDS011;378;48.844;9.156;2023-07-20T08:03:41;4.53;;;1.30;;
789;SDS011;378;48.844;9.156;2023-07-20T08:06:10;2.83;;;1.30;;
789;SDS011;378;48.844;9.156;2023-07-20T08:08:38;3.70;;;1.58;;
789;SDS011;378;48.844;9.156;2023-07-20T08:11:05;6.80;;;1.90;;
789;SDS011;378;48.844;9.156;2023-07-20T08:13:32;5.55;;;1.50;;
789;SDS011;378;48.844;9.156;2023-07-20T08:16:00;7.93;;;1.67;;
789;SDS011;378;48.844;9.156;2023-07-20T08:18:28;5.88;;;1.65;;
789;SDS011;378;48.844;9.156;2023-07-20T08:20:56;3.15;;;1.65;;
789;SDS011;378;48.844;9.156;2023-07-20T08:23:23;4.32;;;1.40;;
789;SDS011;378;48.844;9.156;2023-07-20T08:25:51;3.13;;;1.50;;
789;SDS011;378;48.844;9.156;2023-07-20T08:28:18;5.30;;;1.40;;
789;SDS011;378;48.844;9.156;2023-07-20T08:30:47;6.05;;;1.55;;
789;SDS011;378;48.844;9.156;2023-07-20T08:33:15;2.60;;;1.40;;
789;SDS011;378;48.844;9.156;2023-07-20T08:35:45;6.00;;;1.30;;
789;SDS011;378;48.844;9.156;2023-07-20T08:38:12;4.10;;;1.30;;
789;SDS011;378;48.844;9.156;2023-07-20T08:40:40;5.28;;;1.40;;
789;SDS011;378;48.844;9.156;2023-07-20T08:43:09;2.53;;;1.23;;
789;SDS011;378;48.844;9.156;2023-07-20T08:45:38;3.42;;;1.27;;
789;SDS011;378;48.844;9.156;2023-07-20T08:48:06;7.22;;;1.50;;
789;SDS011;378;48.844;9.156;2023-07-20T08:50:35;3.10;;;1.30;;
789;SDS011;378;48.844;9.156;2023-07-20T08:53:02;3.67;;;1.30;;
789;SDS011;378;48.844;9.156;2023-07-20T08:55:29;4.93;;;1.38;;
789;SDS011;378;48.844;9.156;2023-07-20T08:57:57;4.75;;;1.15;;
789;SDS011;378;48.844;9.156;2023-07-20T09:00:26;3.13;;;1.23;;
789;SDS011;378;48.844;9.156;2023-07-20T09:02:54;3.97;;;1.50;;
789;SDS011;378;48.844;9.156;2023-07-20T09:05:22;2.88;;;1.17;;
789;SDS011;378;48.844;9.156;2023-07-20T09:07:51;2.80;;;1.30;;
789;SDS011;378;48.844;9.156;2023-07-20T09:10:19;4.03;;;1.23;;
789;SDS011;378;48.844;9.156;2023-07-20T09:12:47;2.22;;;1.20;;
789;SDS011;378;48.844;9.156;2023-07-20T09:15:14;3.42;;;1.52;;
789;SDS011;378;48.844;9.156;2023-07-20T09:17:46;5.00;;;1.85;;
789;SDS011;378;48.844;9.156;2023-07-20T09:20:14;2.72;;;1.27;;
789;SDS011;378;48.844;9.156;2023-07-20T09:22:42;3.05;;;1.38;;
789;SDS011;378;48.844;9.156;2023-07-20T09:25:10;6.32;;;1.30;;
789;SDS011;378;48.844;9.156;2023-07-20T09:27:39;4.15;;;1.20;;
789;SDS011;378;48.844;9.156;2023-07-20T09:30:07;3.38;;;1.40;;
789;SDS011;378;48.844;9.156;2023-07-20T09:32:39;4.82;;;1.50;;
789;SDS011;378;48.844;9.156;2023-07-20T09:35:13;2.70;;;1.30;;
789;SDS011;378;48.844;9.156;2023-07-20T09:37:46;2.97;;;1.20;;
789;SDS011;378;48.844;9.156;2023-07-20T09:40:17;2.13;;;0.90;;
789;SDS011;378;48.844;9.156;2023-07-20T09:42:44;2.47;;;1.00;;
789;SDS011;378;48.844;9.156;2023-07-20T09:45:11;3.17;;;0.90;;
789;SDS011;378;48.844;9.156;2023-07-20T09:47:38;2.90;;;1.00;;
789;SDS011;378;48.844;9.156;2023-07-20T09:50:07;3.15;;;1.00;;
789;SDS011;378;48.844;9.156;2023-07-20T09:52:37;2.28;;;0.95;;
789;SDS011;378;48.844;9.156;2023-07-20T09:55:06;5.95;;;0.90;;
789;SDS011;378;48.844;9.156;2023-07-20T09:57:34;2.33;;;1.15;;
789;SDS011;378;48.844;9.156;2023-07-20T10:00:02;1.33;;;1.10;;
789;SDS011;378;48.844;9.156;2023-07-20T10:02:34;2.08;;;1.10;;
789;SDS011;378;48.844;9.156;2023-07-20T10:05:07;2.25;;;0.90;;
789;SDS011;378;48.844;9.156;2023-07-20T10:07:40;3.53;;;1.00;;
789;SDS011;378;48.844;9.156;2023-07-20T10:10:11;2.83;;;0.90;;
789;SDS011;378;48.844;9.156;2023-07-20T10:12:40;2.30;;;1.00;;
789;SDS011;378;48.844;9.156;2023-07-20T10:15:10;6.63;;;1.00;;
789;SDS011;378;48.844;9.156;2023-07-20T10:17:42;1.85;;;0.90;;
789;SDS011;378;48.844;9.156;2023-07-20T10:20:15;3.00;;;0.90;;
789;SDS011;378;48.844;9.156;2023-07-20T10:22:47;3.25;;;0.90;;
789;SDS011;378;48.844;9.156;2023-07-20T10:25:15;3.83;;;1.00;;
789;SDS011;378;48.844;9.156;2023-07-20T10:27:44;2.58;;;0.73;;
789;SDS011;378;48.844;9.156;2023-07-20T10:30:11;1.88;;;1.00;;
789;SDS011;378;48.844;9.156;2023-07-20T10:32:39;1.65;;;0.93;;
789;SDS011;378;48.844;9.156;2023-07-20T10:35:14;1.80;;;0.90;;
789;SDS011;378;48.844;9.156;2023-07-20T10:37:50;2.92;;;1.10;;
789;SDS011;378;48.844;9.156;2023-07-20T10:40:28;3.50;;;1.13;;
789;SDS011;378;48.844;9.156;2023-07-20T10:42:57;3.05;;;1.15;;
789;SDS011;378;48.844;9.156;2023-07-20T10:45:33;1.23;;;0.70;;
789;SDS011;378;48.844;9.156;2023-07-20T10:48:06;1.80;;;0.90;;
789;SDS011;378;48.844;9.156;2023-07-20T10:50:39;1.00;;;0.68;;
789;SDS011;378;48.844;9.156;2023-07-20T10:53:11;2.20;;;0.70;;
789;SDS011;378;48.844;9.156;2023-07-20T10:55:41;1.23;;;0.80;;
789;SDS011;378;48.844;9.156;2023-07-20T10:58:09;1.25;;;1.00;;
789;SDS011;378;48.844;9.156;2023-07-20T11:00:37;3.05;;;0.80;;
789;SDS011;378;48.844;9.156;2023-07-20T11:03:28;2.20;;;0.77;;
789;SDS011;378;48.844;9.156;2023-07-20T11:05:56;1.00;;;0.77;;
789;SDS011;378;48.844;9.156;2023-07-20T11:08:41;3.30;;;0.95;;
789;SDS011;378;48.844;9.156;2023-07-20T11:44:03;4.50;;;0.88;;
789;SDS011;378;48.844;9.156;2023-07-20T11:46:31;2.80;;;1.10;;
789;SDS011;378;48.844;9.156;2023-07-20T11:48:58;1.77;;;0.88;;
789;SDS011;378;48.844;9.156;2023-07-20T11:51:26;3.75;;;1.00;;
789;SDS011;378;48.844;9.156;2023-07-20T11:53:54;3.72;;;1.05;;
789;SDS011;378;48.844;9.156;2023-07-20T11:56:22;1.38;;;0.65;;
789;SDS011;378;48.844;9.156;2023-07-20T11:58:49;2.08;;;0.88;;
789;SDS011;378;48.844;9.156;2023-07-20T12:01:18;1.50;;;0.80;;
789;SDS011;378;48.844;9.156;2023-07-20T12:03:45;0.88;;;0.63;;
789;SDS011;378;48.844;9.156;2023-07-20T12:06:14;1.33;;;0.82;;
789;SDS011;378;48.844;9.156;2023-07-20T12:08:41;2.90;;;0.85;;
789;SDS011;378;48.844;9.156;2023-07-20T12:11:09;1.75;;;0.82;;
789;SDS011;378;48.844;9.156;2023-07-20T12:13:37;1.95;;;0.95;;
789;SDS011;378;48.844;9.156;2023-07-20T12:16:10;2.58;;;0.73;;
789;SDS011;378;48.844;9.156;2023-07-20T12:18:40;2.40;;;0.80;;
789;SDS011;378;48.844;9.156;2023-07-20T12:21:07;2.65;;;1.02;;
789;SDS011;378;48.844;9.156;2023-07-20T12:23:35;1.90;;;0.90;;
789;SDS011;378;48.844;9.156;2023-07-20T12:26:03;0.95;;;0.82;;
789;SDS011;378;48.844;9.156;2023-07-20T12:28:34;1.35;;;0.63;;
789;SDS011;378;48.844;9.156;2023-07-20T12:31:04;3.88;;;1.02;;
789;SDS011;378;48.844;9.156;2023-07-20T12:33:31;1.80;;;0.82;;
789;SDS011;378;48.844;9.156;2023-07-20T12:35:59;10.02;;;1.00;;
789;SDS011;378;48.844;9.156;2023-07-20T12:38:26;3.42;;;0.80;;
789;SDS011;378;48.844;9.156;2023-07-20T12:40:53;1.75;;;0.80;;
789;SDS011;378;48.844;9.156;2023-07-20T12:43:21;4.20;;;0.73;;
789;SDS011;378;48.844;9.156;2023-07-20T12:45:48;1.30;;;0.63;;
789;SDS011;378;48.844;9.156;2023-07-20T12:48:14;3.33;;;0.88;;
789;SDS011;378;48.844;9.156;2023-07-20T12:50:41;1.98;;;0.73;;
789;SDS011;378;48.844;9.156;2023-07-20T12:53:09;3.17;;;0.90;;
789;SDS011;378;48.844;9.156;2023-07-20T12:55:37;0.70;;;0.52;;
789;SDS011;378;48.844;9.156;2023-07-20T12:58:03;1.60;;;0.80;;
789;SDS011;378;48.844;9.156;2023-07-20T13:00:30;2.00;;;1.00;;
789;SDS011;378;48.844;9.156;2023-07-20T13:02:57;1.30;;;0.70;;
789;SDS011;378;48.844;9.156;2023-07-20T13:05:24;2.88;;;1.20;;
789;SDS011;378;48.844;9.156;2023-07-20T13:07:51;3.92;;;1.00;;
789;SDS011;378;48.844;9.156;2023-07-20T13:10:19;10.57;;;0.95;;
789;SDS011;378;48.844;9.156;2023-07-20T13:12:46;1.30;;;0.70;;
789;SDS011;378;48.844;9.156;2023-07-20T13:15:13;2.80;;;0.60;;
789;SDS011;378;48.844;9.156;2023-07-20T13:17:40;0.60;;;0.60;;
789;SDS011;378;48.844;9.156;2023-07-20T13:20:07;0.70;;;0.50;;
789;SDS011;378;48.844;9.156;2023-07-20T13:22:36;4.47;;;0.90;;
789;SDS011;378;48.844;9.156;2023-07-20T13:25:03;3.90;;;1.20;;
789;SDS011;378;48.844;9.156;2023-07-20T13:27:32;4.05;;;1.10;;
789;SDS011;378;48.844;9.156;2023-07-20T13:29:59;3.33;;;1.00;;
789;SDS011;378;48.844;9.156;2023-07-20T13:32:31;3.53;;;1.00;;
789;SDS011;378;48.844;9.156;2023-07-20T13:34:58;3.28;;;1.00;;
789;SDS011;378;48.844;9.156;2023-07-20T13:37:25;2.35;;;0.70;;
789;SDS011;378;48.844;9.156;2023-07-20T13:39:52;3.38;;;0.90;;
789;SDS011;378;48.844;9.156;2023-07-20T13:42:19;2.45;;;0.90;;
789;SDS011;378;48.844;9.156;2023-07-20T13:44:48;1.52;;;0.80;;
789;SDS011;378;48.844;9.156;2023-07-20T13:47:14;2.47;;;0.90;;
789;SDS011;378;48.844;9.156;2023-07-20T13:49:41;0.85;;;0.50;;
789;SDS011;378;48.844;9.156;2023-07-20T13:52:09;0.70;;;0.50;;
789;SDS011;378;48.844;9.156;2023-07-20T13:54:35;3.50;;;0.50;;
789;SDS011;378;48.844;9.156;2023-07-20T13:57:02;1.70;;;0.60;;
789;SDS011;378;48.844;9.156;2023-07-20T13:59:30;2.00;;;0.80;;
789;SDS011;378;48.844;9.156;2023-07-20T14:01:58;2.28;;;0.75;;
789;SDS011;378;48.844;9.156;2023-07-20T14:04:25;1.35;;;0.80;;
789;SDS011;378;48.844;9.156;2023-07-20T14:06:51;2.38;;;0.52;;
789;SDS011;378;48.844;9.156;2023-07-20T14:09:18;7.60;;;0.80;;
789;SDS011;378;48.844;9.156;2023-07-20T14:11:45;1.02;;;0.55;;
789;SDS011;378;48.844;9.156;2023-07-20T14:14:12;2.58;;;0.68;;
789;SDS011;378;48.844;9.156;2023-07-20T14:16:38;3.20;;;0.90;;
789;SDS011;378;48.844;9.156;2023-07-20T14:19:06;1.55;;;0.88;;
789;SDS011;378;48.844;9.156;2023-07-20T14:21:33;3.63;;;0.75;;
789;SDS011;378;48.844;9.156;2023-07-20T14:24:00;1.00;;;0.73;;
789;SDS011;378;48.844;9.156;2023-07-20T14:26:27;2.70;;;0.80;;
789;SDS011;378;48.844;9.156;2023-07-20T14:28:54;5.75;;;0.90;;
789;SDS011;378;48.844;9.156;2023-07-20T14:31:20;1.40;;;0.60;;
789;SDS011;378;48.844;9.156;2023-07-20T14:33:47;2.55;;;0.70;;
789;SDS011;378;48.844;9.156;2023-07-20T14:36:15;3.08;;;1.00;;
789;SDS011;378;48.844;9.156;2023-07-20T14:38:43;1.08;;;0.60;;
789;SDS011;378;48.844;9.156;2023-07-20T14:41:09;0.90;;;0.60;;
789;SDS011;378;48.844;9.156;2023-07-20T14:43:42;0.80;;;0.80;;
789;SDS011;378;48.844;9.156;2023-07-20T14:46:09;2.42;;;0.80;;
789;SDS011;378;48.844;9.156;2023-07-20T14:48:36;1.35;;;0.70;;
789;SDS011;378;48.844;9.156;2023-07-20T14:51:03;2.15;;;0.50;;
789;SDS011;378;48.844;9.156;2023-07-20T14:53:31;6.68;;;0.95;;
789;SDS011;378;48.844;9.156;2023-07-20T14:55:58;1.23;;;0.60;;
789;SDS011;378;48.844;9.156;2023-07-20T14:58:26;0.65;;;0.65;;
789;SDS011;378;48.844;9.156;2023-07-20T15:00:53;1.13;;;0.60;;
789;SDS011;378;48.844;9.156;2023-07-20T15:03:20;1.95;;;0.93;;
789;SDS011;378;48.844;9.156;2023-07-20T15:05:46;2.50;;;0.77;;
789;SDS011;378;48.844;9.156;2023-07-20T15:08:13;0.60;;;0.60;;
789;SDS011;378;48.844;9.156;2023-07-20T15:10:41;1.08;;;0.63;;
789;SDS011;378;48.844;9.156;2023-07-20T15:13:11;1.08;;;0.70;;
789;SDS011;378;48.844;9.156;2023-07-20T15:15:38;1.42;;;0.80;;
789;SDS011;378;48.844;9.156;2023-07-20T15:18:06;1.13;;;0.40;;
789;SDS011;378;48.844;9.156;2023-07-20T15:20:33;1.20;;;0.65;;
789;SDS011;378;48.844;9.156;2023-07-20T15:23:00;2.53;;;0.55;;
789;SDS011;378;48.844;9.156;2023-07-20T15:25:27;2.00;;;0.63;;
789;SDS011;378;48.844;9.156;2023-07-20T15:27:55;2.15;;;0.50;;
789;SDS011;378;48.844;9.156;2023-07-20T15:30:22;2.00;;;1.08;;
789;SDS011;378;48.844;9.156;2023-07-20T15:32:49;0.60;;;0.60;;
789;SDS011;378;48.844;9.156;2023-07-20T15:35:15;1.70;;;0.70;;
789;SDS011;378;48.844;9.156;2023-07-20T15:37:42;0.73;;;0.57;;
789;SDS011;378;48.844;9.156;2023-07-20T15:40:10;0.68;;;0.40;;
789;SDS011;378;48.844;9.156;2023-07-20T15:42:37;1.65;;;0.70;;
789;SDS011;378;48.844;9.156;2023-07-20T15:45:06;1.02;;;0.73;;
789;SDS011;378;48.844;9.156;2023-07-20T15:47:34;1.38;;;0.82;;
789;SDS011;378;48.844;9.156;2023-07-20T15:50:01;0.70;;;0.50;;
789;SDS011;378;48.844;9.156;2023-07-20T15:52:28;1.40;;;0.98;;
789;SDS011;378;48.844;9.156;2023-07-20T15:54:55;1.80;;;0.98;;
789;SDS011;378;48.844;9.156;2023-07-20T15:57:22;3.72;;;0.98;;
789;SDS011;378;48.844;9.156;2023-07-20T15:59:49;3.67;;;1.00;;
789;SDS011;378;48.844;9.156;2023-07-20T16:02:17;2.35;;;1.00;;
789;SDS011;378;48.844;9.156;2023-07-20T16:04:44;1.75;;;1.00;;
789;SDS011;378;48.844;9.156;2023-07-20T16:07:11;3.38;;;0.90;;
789;SDS011;378;48.844;9.156;2023-07-20T16:09:38;1.45;;;0.82;;
789;SDS011;378;48.844;9.156;2023-07-20T16:12:05;1.63;;;0.82;;
789;SDS011;378;48.844;9.156;2023-07-20T16:14:33;2.40;;;0.90;;
789;SDS011;378;48.844;9.156;2023-07-20T16:16:59;1.95;;;1.02;;
789;SDS011;378;48.844;9.156;2023-07-20T16:19:28;2.15;;;1.00;;
789;SDS011;378;48.844;9.156;2023-07-20T16:21:55;1.48;;;0.90;;
789;SDS011;378;48.844;9.156;2023-07-20T16:24:22;3.60;;;1.00;;
789;SDS011;378;48.844;9.156;2023-07-20T16:26:48;4.47;;;1.13;;
789;SDS011;378;48.844;9.156;2023-07-20T16:29:16;2.10;;;0.95;;
789;SDS011;378;48.844;9.156;2023-07-20T16:31:42;2.80;;;1.00;;